sensor_id;sensor_type;location;lat;lon;timestamp;P1;durP1;ratioP1;P2;durP2;ratioP2
8893;SDS011;4483;48.622;9.230;2023-04-15T00:00:31;1.60;;;1.50;;
8893;SDS011;4483;48.622;9.230;2023-04-15T00:02:58;3.53;;;1.70;;
8893;SDS011;4483;48.622;9.230;2023-04-15T00:05:28;8.70;;;2.33;;
8893;SDS011;4483;48.622;9.230;2023-04-15T00:07:55;2.60;;;1.70;;
8893;SDS011;4483;48.622;9.230;2023-04-15T00:10:21;4.97;;;1.60;;
8893;SDS011;4483;48.622;9.230;2023-04-15T00:12:48;7.03;;;2.13;;
8893;SDS011;4483;48.622;9.230;2023-04-15T00:15:15;3.27;;;2.00;;
8893;SDS011;4483;48.622;9.230;2023-04-15T00:17:42;3.43;;;2.03;;
8893;SDS011;4483;48.622;9.230;2023-04-15T00:20:09;3.00;;;1.63;;
8893;SDS011;4483;48.622;9.230;2023-04-15T00:22:37;3.30;;;2.13;;
8893;SDS011;4483;48.622;9.230;2023-04-15T00:25:04;6.47;;;2.67;;
8893;SDS011;4483;48.622;9.230;2023-04-15T00:27:31;8.67;;;3.40;;
8893;SDS011;4483;48.622;9.230;2023-04-15T00:29:57;5.53;;;2.83;;
8893;SDS011;4483;48.622;9.230;2023-04-15T00:32:24;5.23;;;3.07;;
8893;SDS011;4483;48.622;9.230;2023-04-15T00:34:51;7.20;;;3.40;;
8893;SDS011;4483;48.622;9.230;2023-04-15T00:37:17;5.40;;;3.40;;
8893;SDS011;4483;48.622;9.230;2023-04-15T00:39:46;9.50;;;3.27;;
8893;SDS011;4483;48.622;9.230;2023-04-15T00:42:12;5.97;;;2.90;;
8893;SDS011;4483;48.622;9.230;2023-04-15T00:44:39;6.23;;;2.90;;
8893;SDS011;4483;48.622;9.230;2023-04-15T00:47:06;4.83;;;2.40;;
8893;SDS011;4483;48.622;9.230;2023-04-15T00:49:35;5.33;;;2.90;;
8893;SDS011;4483;48.622;9.230;2023-04-15T00:52:02;9.30;;;3.43;;
8893;SDS011;4483;48.622;9.230;2023-04-15T00:54:29;10.17;;;3.60;;
8893;SDS011;4483;48.622;9.230;2023-04-15T00:56:57;7.03;;;3.10;;
8893;SDS011;4483;48.622;9.230;2023-04-15T00:59:24;7.97;;;4.37;;
8893;SDS011;4483;48.622;9.230;2023-04-15T01:01:52;8.67;;;3.73;;
8893;SDS011;4483;48.622;9.230;2023-04-15T01:04:18;7.83;;;4.00;;
8893;SDS011;4483;48.622;9.230;2023-04-15T01:06:45;8.63;;;4.10;;
8893;SDS011;4483;48.622;9.230;2023-04-15T01:09:12;11.20;;;4.20;;
8893;SDS011;4483;48.622;9.230;2023-04-15T01:11:38;7.80;;;3.53;;
8893;SDS011;4483;48.622;9.230;2023-04-15T01:14:06;8.10;;;3.43;;
8893;SDS011;4483;48.622;9.230;2023-04-15T01:16:34;6.50;;;3.30;;
8893;SDS011;4483;48.622;9.230;2023-04-15T01:19:03;7.17;;;3.27;;
8893;SDS011;4483;48.622;9.230;2023-04-15T01:21:31;6.97;;;3.60;;
8893;SDS011;4483;48.622;9.230;2023-04-15T01:23:58;7.33;;;3.30;;
8893;SDS011;4483;48.622;9.230;2023-04-15T01:26:28;12.00;;;3.53;;
8893;SDS011;4483;48.622;9.230;2023-04-15T01:28:54;6.93;;;3.10;;
8893;SDS011;4483;48.622;9.230;2023-04-15T01:31:21;8.17;;;3.50;;
8893;SDS011;4483;48.622;9.230;2023-04-15T01:33:48;8.20;;;2.90;;
8893;SDS011;4483;48.622;9.230;2023-04-15T01:36:14;7.60;;;3.03;;
8893;SDS011;4483;48.622;9.230;2023-04-15T01:38:41;7.60;;;3.37;;
8893;SDS011;4483;48.622;9.230;2023-04-15T01:41:08;8.90;;;3.53;;
8893;SDS011;4483;48.622;9.230;2023-04-15T01:43:36;5.40;;;3.13;;
8893;SDS011;4483;48.622;9.230;2023-04-15T01:46:03;4.53;;;3.17;;
8893;SDS011;4483;48.622;9.230;2023-04-15T01:48:30;6.73;;;2.70;;
8893;SDS011;4483;48.622;9.230;2023-04-15T01:50:57;6.97;;;3.03;;
8893;SDS011;4483;48.622;9.230;2023-04-15T01:53:24;4.20;;;3.00;;
8893;SDS011;4483;48.622;9.230;2023-04-15T01:55:51;5.17;;;3.03;;
8893;SDS011;4483;48.622;9.230;2023-04-15T01:58:18;5.93;;;3.43;;
8893;SDS011;4483;48.622;9.230;2023-04-15T02:00:46;7.47;;;3.80;;
8893;SDS011;4483;48.622;9.230;2023-04-15T02:03:13;6.87;;;3.10;;
8893;SDS011;4483;48.622;9.230;2023-04-15T02:05:39;7.67;;;3.27;;
8893;SDS011;4483;48.622;9.230;2023-04-15T02:08:06;8.47;;;3.33;;
8893;SDS011;4483;48.622;9.230;2023-04-15T02:10:33;7.67;;;3.80;;
8893;SDS011;4483;48.622;9.230;2023-04-15T02:13:00;6.80;;;3.23;;
8893;SDS011;4483;48.622;9.230;2023-04-15T02:15:26;6.00;;;2.90;;
8893;SDS011;4483;48.622;9.230;2023-04-15T02:17:55;5.43;;;3.00;;
8893;SDS011;4483;48.622;9.230;2023-04-15T02:20:23;4.83;;;2.73;;
8893;SDS011;4483;48.622;9.230;2023-04-15T02:22:50;5.00;;;2.73;;
8893;SDS011;4483;48.622;9.230;2023-04-15T02:25:17;5.23;;;2.87;;
8893;SDS011;4483;48.622;9.230;2023-04-15T02:27:44;5.00;;;3.10;;
8893;SDS011;4483;48.622;9.230;2023-04-15T02:30:11;6.33;;;3.10;;
8893;SDS011;4483;48.622;9.230;2023-04-15T02:32:38;7.43;;;3.10;;
8893;SDS011;4483;48.622;9.230;2023-04-15T02:35:09;5.03;;;2.80;;
8893;SDS011;4483;48.622;9.230;2023-04-15T02:37:36;6.43;;;3.17;;
8893;SDS011;4483;48.622;9.230;2023-04-15T02:40:07;3.13;;;2.37;;
8893;SDS011;4483;48.622;9.230;2023-04-15T02:42:36;6.20;;;3.37;;
8893;SDS011;4483;48.622;9.230;2023-04-15T02:45:03;5.80;;;3.23;;
8893;SDS011;4483;48.622;9.230;2023-04-15T02:47:30;7.13;;;3.03;;
8893;SDS011;4483;48.622;9.230;2023-04-15T02:49:57;4.97;;;2.60;;
8893;SDS011;4483;48.622;9.230;2023-04-15T02:52:26;3.27;;;2.30;;
8893;SDS011;4483;48.622;9.230;2023-04-15T02:54:53;6.20;;;3.10;;
8893;SDS011;4483;48.622;9.230;2023-04-15T02:57:22;4.80;;;2.60;;
8893;SDS011;4483;48.622;9.230;2023-04-15T02:59:49;5.93;;;2.80;;
8893;SDS011;4483;48.622;9.230;2023-04-15T03:02:15;4.50;;;2.93;;
8893;SDS011;4483;48.622;9.230;2023-04-15T03:04:42;7.13;;;2.47;;
8893;SDS011;4483;48.622;9.230;2023-04-15T03:07:09;6.80;;;2.90;;
8893;SDS011;4483;48.622;9.230;2023-04-15T03:09:37;4.40;;;2.70;;
8893;SDS011;4483;48.622;9.230;2023-04-15T03:12:04;4.03;;;2.83;;
8893;SDS011;4483;48.622;9.230;2023-04-15T03:14:31;4.50;;;3.17;;
8893;SDS011;4483;48.622;9.230;2023-04-15T03:16:57;5.83;;;2.63;;
8893;SDS011;4483;48.622;9.230;2023-04-15T03:19:25;7.50;;;3.53;;
8893;SDS011;4483;48.622;9.230;2023-04-15T03:21:51;6.30;;;2.70;;
8893;SDS011;4483;48.622;9.230;2023-04-15T03:24:19;4.97;;;3.43;;
8893;SDS011;4483;48.622;9.230;2023-04-15T03:26:47;5.10;;;2.37;;
8893;SDS011;4483;48.622;9.230;2023-04-15T03:29:13;4.00;;;2.53;;
8893;SDS011;4483;48.622;9.230;2023-04-15T03:31:40;4.37;;;2.30;;
8893;SDS011;4483;48.622;9.230;2023-04-15T03:34:07;4.13;;;2.27;;
8893;SDS011;4483;48.622;9.230;2023-04-15T03:36:33;2.63;;;2.10;;
8893;SDS011;4483;48.622;9.230;2023-04-15T03:39:00;3.83;;;2.33;;
8893;SDS011;4483;48.622;9.230;2023-04-15T03:41:27;3.77;;;2.00;;
8893;SDS011;4483;48.622;9.230;2023-04-15T03:43:55;2.63;;;2.10;;
8893;SDS011;4483;48.622;9.230;2023-04-15T03:46:22;6.57;;;2.63;;
8893;SDS011;4483;48.622;9.230;2023-04-15T03:48:48;3.40;;;2.20;;
8893;SDS011;4483;48.622;9.230;2023-04-15T03:51:15;3.40;;;2.10;;
8893;SDS011;4483;48.622;9.230;2023-04-15T03:53:42;2.93;;;2.50;;
8893;SDS011;4483;48.622;9.230;2023-04-15T03:56:08;3.60;;;2.50;;
8893;SDS011;4483;48.622;9.230;2023-04-15T03:58:35;4.10;;;2.37;;
8893;SDS011;4483;48.622;9.230;2023-04-15T04:01:03;3.47;;;2.23;;
8893;SDS011;4483;48.622;9.230;2023-04-15T04:03:30;3.77;;;2.73;;
8893;SDS011;4483;48.622;9.230;2023-04-15T04:05:58;5.40;;;2.60;;
8893;SDS011;4483;48.622;9.230;2023-04-15T04:08:25;3.07;;;2.10;;
8893;SDS011;4483;48.622;9.230;2023-04-15T04:10:51;2.80;;;2.13;;
8893;SDS011;4483;48.622;9.230;2023-04-15T04:13:18;5.53;;;2.00;;
8893;SDS011;4483;48.622;9.230;2023-04-15T04:15:44;4.33;;;2.00;;
8893;SDS011;4483;48.622;9.230;2023-04-15T04:18:12;6.97;;;2.67;;
8893;SDS011;4483;48.622;9.230;2023-04-15T04:20:39;3.57;;;2.13;;
8893;SDS011;4483;48.622;9.230;2023-04-15T04:23:06;3.87;;;2.13;;
8893;SDS011;4483;48.622;9.230;2023-04-15T04:25:33;3.13;;;2.03;;
8893;SDS011;4483;48.622;9.230;2023-04-15T04:28:00;3.83;;;2.20;;
8893;SDS011;4483;48.622;9.230;2023-04-15T04:30:26;3.80;;;2.70;;
8893;SDS011;4483;48.622;9.230;2023-04-15T04:32:53;3.57;;;2.27;;
8893;SDS011;4483;48.622;9.230;2023-04-15T04:35:21;3.57;;;2.13;;
8893;SDS011;4483;48.622;9.230;2023-04-15T04:37:48;7.00;;;2.73;;
8893;SDS011;4483;48.622;9.230;2023-04-15T04:40:15;4.00;;;2.53;;
8893;SDS011;4483;48.622;9.230;2023-04-15T04:42:42;3.53;;;2.30;;
8893;SDS011;4483;48.622;9.230;2023-04-15T04:45:08;6.77;;;2.90;;
8893;SDS011;4483;48.622;9.230;2023-04-15T04:47:36;2.83;;;2.23;;
8893;SDS011;4483;48.622;9.230;2023-04-15T04:50:02;2.63;;;2.43;;
8893;SDS011;4483;48.622;9.230;2023-04-15T04:52:31;9.93;;;2.67;;
8893;SDS011;4483;48.622;9.230;2023-04-15T04:54:57;4.47;;;3.13;;
8893;SDS011;4483;48.622;9.230;2023-04-15T04:57:24;6.73;;;2.37;;
8893;SDS011;4483;48.622;9.230;2023-04-15T04:59:50;2.30;;;2.10;;
8893;SDS011;4483;48.622;9.230;2023-04-15T05:02:17;5.33;;;2.30;;
8893;SDS011;4483;48.622;9.230;2023-04-15T05:04:44;2.50;;;2.27;;
8893;SDS011;4483;48.622;9.230;2023-04-15T05:07:10;1.80;;;1.70;;
8893;SDS011;4483;48.622;9.230;2023-04-15T05:09:38;3.53;;;2.00;;
8893;SDS011;4483;48.622;9.230;2023-04-15T05:12:06;4.57;;;1.83;;
8893;SDS011;4483;48.622;9.230;2023-04-15T05:14:33;2.93;;;2.20;;
8893;SDS011;4483;48.622;9.230;2023-04-15T05:16:59;2.30;;;2.10;;
8893;SDS011;4483;48.622;9.230;2023-04-15T05:19:26;3.67;;;2.57;;
8893;SDS011;4483;48.622;9.230;2023-04-15T05:21:53;4.23;;;2.50;;
8893;SDS011;4483;48.622;9.230;2023-04-15T05:24:20;8.67;;;2.17;;
8893;SDS011;4483;48.622;9.230;2023-04-15T05:26:48;3.40;;;2.10;;
8893;SDS011;4483;48.622;9.230;2023-04-15T05:29:15;2.87;;;1.87;;
8893;SDS011;4483;48.622;9.230;2023-04-15T05:31:41;6.70;;;2.50;;
8893;SDS011;4483;48.622;9.230;2023-04-15T05:34:08;3.13;;;1.90;;
8893;SDS011;4483;48.622;9.230;2023-04-15T05:36:35;2.57;;;2.00;;
8893;SDS011;4483;48.622;9.230;2023-04-15T05:39:02;2.60;;;1.83;;
8893;SDS011;4483;48.622;9.230;2023-04-15T05:41:29;3.70;;;2.37;;
8893;SDS011;4483;48.622;9.230;2023-04-15T05:43:57;3.70;;;2.30;;
8893;SDS011;4483;48.622;9.230;2023-04-15T05:46:24;3.20;;;2.40;;
8893;SDS011;4483;48.622;9.230;2023-04-15T05:48:51;3.23;;;2.00;;
8893;SDS011;4483;48.622;9.230;2023-04-15T05:51:18;3.63;;;2.20;;
8893;SDS011;4483;48.622;9.230;2023-04-15T05:53:44;2.03;;;1.77;;
8893;SDS011;4483;48.622;9.230;2023-04-15T05:56:11;3.10;;;2.27;;
8893;SDS011;4483;48.622;9.230;2023-04-15T05:58:38;3.47;;;2.13;;
8893;SDS011;4483;48.622;9.230;2023-04-15T06:01:06;3.03;;;2.10;;
8893;SDS011;4483;48.622;9.230;2023-04-15T06:03:33;3.50;;;2.10;;
8893;SDS011;4483;48.622;9.230;2023-04-15T06:05:59;4.20;;;2.77;;
8893;SDS011;4483;48.622;9.230;2023-04-15T06:08:26;2.90;;;2.27;;
8893;SDS011;4483;48.622;9.230;2023-04-15T06:10:53;5.33;;;2.03;;
8893;SDS011;4483;48.622;9.230;2023-04-15T06:13:19;3.93;;;2.30;;
8893;SDS011;4483;48.622;9.230;2023-04-15T06:15:46;3.33;;;2.00;;
8893;SDS011;4483;48.622;9.230;2023-04-15T06:18:14;3.93;;;2.30;;
8893;SDS011;4483;48.622;9.230;2023-04-15T06:20:41;4.47;;;2.60;;
8893;SDS011;4483;48.622;9.230;2023-04-15T06:23:08;3.33;;;2.30;;
8893;SDS011;4483;48.622;9.230;2023-04-15T06:25:34;3.70;;;2.47;;
8893;SDS011;4483;48.622;9.230;2023-04-15T06:28:01;2.77;;;2.20;;
8893;SDS011;4483;48.622;9.230;2023-04-15T06:30:28;4.93;;;2.43;;
8893;SDS011;4483;48.622;9.230;2023-04-15T06:32:54;5.27;;;2.20;;
8893;SDS011;4483;48.622;9.230;2023-04-15T06:35:22;4.67;;;2.60;;
8893;SDS011;4483;48.622;9.230;2023-04-15T06:37:49;5.37;;;2.70;;
8893;SDS011;4483;48.622;9.230;2023-04-15T06:40:16;5.13;;;3.00;;
8893;SDS011;4483;48.622;9.230;2023-04-15T06:42:42;4.30;;;2.30;;
8893;SDS011;4483;48.622;9.230;2023-04-15T06:45:10;5.37;;;2.50;;
8893;SDS011;4483;48.622;9.230;2023-04-15T06:47:38;3.20;;;2.23;;
8893;SDS011;4483;48.622;9.230;2023-04-15T06:50:06;3.17;;;2.87;;
8893;SDS011;4483;48.622;9.230;2023-04-15T06:52:34;4.23;;;2.23;;
8893;SDS011;4483;48.622;9.230;2023-04-15T06:55:01;8.97;;;2.67;;
8893;SDS011;4483;48.622;9.230;2023-04-15T06:57:27;4.30;;;2.17;;
8893;SDS011;4483;48.622;9.230;2023-04-15T06:59:54;3.17;;;2.80;;
8893;SDS011;4483;48.622;9.230;2023-04-15T07:02:21;4.73;;;2.70;;
8893;SDS011;4483;48.622;9.230;2023-04-15T07:04:48;4.63;;;2.73;;
8893;SDS011;4483;48.622;9.230;2023-04-15T07:07:15;7.03;;;4.77;;
8893;SDS011;4483;48.622;9.230;2023-04-15T07:09:43;7.37;;;3.13;;
8893;SDS011;4483;48.622;9.230;2023-04-15T07:12:10;4.23;;;2.90;;
8893;SDS011;4483;48.622;9.230;2023-04-15T07:14:37;5.17;;;3.83;;
8893;SDS011;4483;48.622;9.230;2023-04-15T07:17:03;5.87;;;3.67;;
8893;SDS011;4483;48.622;9.230;2023-04-15T07:19:30;5.27;;;3.77;;
8893;SDS011;4483;48.622;9.230;2023-04-15T07:21:57;3.43;;;2.83;;
8893;SDS011;4483;48.622;9.230;2023-04-15T07:24:24;3.17;;;2.80;;
8893;SDS011;4483;48.622;9.230;2023-04-15T07:26:52;3.63;;;2.60;;
8893;SDS011;4483;48.622;9.230;2023-04-15T07:29:20;7.47;;;3.03;;
8893;SDS011;4483;48.622;9.230;2023-04-15T07:31:46;3.37;;;2.70;;
8893;SDS011;4483;48.622;9.230;2023-04-15T07:34:13;4.07;;;2.60;;
8893;SDS011;4483;48.622;9.230;2023-04-15T07:36:40;4.70;;;2.83;;
8893;SDS011;4483;48.622;9.230;2023-04-15T07:39:07;3.63;;;2.50;;
8893;SDS011;4483;48.622;9.230;2023-04-15T07:41:34;5.13;;;2.80;;
8893;SDS011;4483;48.622;9.230;2023-04-15T07:44:02;3.83;;;2.70;;
8893;SDS011;4483;48.622;9.230;2023-04-15T07:46:29;4.23;;;2.57;;
8893;SDS011;4483;48.622;9.230;2023-04-15T07:48:56;6.73;;;2.73;;
8893;SDS011;4483;48.622;9.230;2023-04-15T07:51:22;4.50;;;2.70;;
8893;SDS011;4483;48.622;9.230;2023-04-15T07:53:49;2.47;;;2.27;;
8893;SDS011;4483;48.622;9.230;2023-04-15T07:56:16;6.10;;;2.83;;
8893;SDS011;4483;48.622;9.230;2023-04-15T07:58:43;3.53;;;2.63;;
8893;SDS011;4483;48.622;9.230;2023-04-15T08:01:11;6.00;;;2.93;;
8893;SDS011;4483;48.622;9.230;2023-04-15T08:03:38;9.67;;;2.80;;
8893;SDS011;4483;48.622;9.230;2023-04-15T08:06:05;4.87;;;2.60;;
8893;SDS011;4483;48.622;9.230;2023-04-15T08:08:32;7.23;;;2.70;;
8893;SDS011;4483;48.622;9.230;2023-04-15T08:10:58;6.90;;;2.70;;
8893;SDS011;4483;48.622;9.230;2023-04-15T08:13:25;2.57;;;2.37;;
8893;SDS011;4483;48.622;9.230;2023-04-15T08:15:52;3.87;;;2.40;;
8893;SDS011;4483;48.622;9.230;2023-04-15T08:18:42;2.87;;;2.20;;
8893;SDS011;4483;48.622;9.230;2023-04-15T08:21:09;2.23;;;1.57;;
8893;SDS011;4483;48.622;9.230;2023-04-15T08:23:36;3.63;;;2.63;;
8893;SDS011;4483;48.622;9.230;2023-04-15T08:26:03;4.13;;;2.63;;
8893;SDS011;4483;48.622;9.230;2023-04-15T08:28:29;3.03;;;2.53;;
8893;SDS011;4483;48.622;9.230;2023-04-15T08:30:56;3.73;;;2.87;;
8893;SDS011;4483;48.622;9.230;2023-04-15T08:33:24;6.17;;;3.10;;
8893;SDS011;4483;48.622;9.230;2023-04-15T08:35:51;7.87;;;3.10;;
8893;SDS011;4483;48.622;9.230;2023-04-15T08:38:18;4.07;;;2.97;;
8893;SDS011;4483;48.622;9.230;2023-04-15T08:40:46;5.07;;;2.93;;
8893;SDS011;4483;48.622;9.230;2023-04-15T08:43:14;3.77;;;2.67;;
8893;SDS011;4483;48.622;9.230;2023-04-15T08:45:46;2.70;;;2.40;;
8893;SDS011;4483;48.622;9.230;2023-04-15T08:48:15;4.73;;;2.80;;
8893;SDS011;4483;48.622;9.230;2023-04-15T08:50:44;7.87;;;3.17;;
8893;SDS011;4483;48.622;9.230;2023-04-15T08:53:12;6.10;;;3.17;;
8893;SDS011;4483;48.622;9.230;2023-04-15T08:55:41;4.77;;;3.07;;
8893;SDS011;4483;48.622;9.230;2023-04-15T08:58:10;6.27;;;3.33;;
8893;SDS011;4483;48.622;9.230;2023-04-15T09:00:37;5.40;;;2.90;;
8893;SDS011;4483;48.622;9.230;2023-04-15T09:03:04;5.63;;;2.80;;
8893;SDS011;4483;48.622;9.230;2023-04-15T09:05:32;4.10;;;3.30;;
8893;SDS011;4483;48.622;9.230;2023-04-15T09:08:00;3.63;;;2.70;;
8893;SDS011;4483;48.622;9.230;2023-04-15T09:10:27;3.63;;;2.83;;
8893;SDS011;4483;48.622;9.230;2023-04-15T09:12:55;4.10;;;2.63;;
8893;SDS011;4483;48.622;9.230;2023-04-15T09:15:22;7.00;;;3.03;;
8893;SDS011;4483;48.622;9.230;2023-04-15T09:17:51;5.20;;;2.93;;
8893;SDS011;4483;48.622;9.230;2023-04-15T09:20:18;7.47;;;3.17;;
8893;SDS011;4483;48.622;9.230;2023-04-15T09:22:46;2.73;;;2.50;;
8893;SDS011;4483;48.622;9.230;2023-04-15T09:25:27;4.97;;;2.50;;
8893;SDS011;4483;48.622;9.230;2023-04-15T09:27:55;4.67;;;2.57;;
8893;SDS011;4483;48.622;9.230;2023-04-15T09:30:23;3.80;;;2.60;;
8893;SDS011;4483;48.622;9.230;2023-04-15T09:32:50;3.60;;;2.90;;
8893;SDS011;4483;48.622;9.230;2023-04-15T09:35:17;2.53;;;2.33;;
8893;SDS011;4483;48.622;9.230;2023-04-15T09:37:45;4.85;;;2.55;;
8893;SDS011;4483;48.622;9.230;2023-04-15T09:40:12;4.93;;;2.83;;
8893;SDS011;4483;48.622;9.230;2023-04-15T09:42:54;2.58;;;2.35;;
8893;SDS011;4483;48.622;9.230;2023-04-15T09:45:21;6.82;;;2.30;;
8893;SDS011;4483;48.622;9.230;2023-04-15T09:47:49;4.13;;;2.45;;
8893;SDS011;4483;48.622;9.230;2023-04-15T09:50:17;6.78;;;2.08;;
8893;SDS011;4483;48.622;9.230;2023-04-15T09:52:44;3.08;;;1.98;;
8893;SDS011;4483;48.622;9.230;2023-04-15T09:55:13;6.40;;;2.08;;
8893;SDS011;4483;48.622;9.230;2023-04-15T09:57:41;2.67;;;1.95;;
8893;SDS011;4483;48.622;9.230;2023-04-15T10:00:10;1.98;;;1.77;;
8893;SDS011;4483;48.622;9.230;2023-04-15T10:02:37;3.30;;;2.00;;
8893;SDS011;4483;48.622;9.230;2023-04-15T10:05:05;3.10;;;1.70;;
8893;SDS011;4483;48.622;9.230;2023-04-15T10:07:33;3.20;;;2.03;;
8893;SDS011;4483;48.622;9.230;2023-04-15T10:10:00;4.60;;;2.17;;
8893;SDS011;4483;48.622;9.230;2023-04-15T10:12:29;2.83;;;1.95;;
8893;SDS011;4483;48.622;9.230;2023-04-15T10:14:57;2.85;;;2.17;;
8893;SDS011;4483;48.622;9.230;2023-04-15T10:17:27;4.35;;;2.30;;
8893;SDS011;4483;48.622;9.230;2023-04-15T10:19:57;2.17;;;1.80;;
8893;SDS011;4483;48.622;9.230;2023-04-15T10:22:26;2.53;;;2.33;;
8893;SDS011;4483;48.622;9.230;2023-04-15T10:24:53;5.82;;;2.70;;
8893;SDS011;4483;48.622;9.230;2023-04-15T10:27:21;3.40;;;2.05;;
8893;SDS011;4483;48.622;9.230;2023-04-15T10:29:49;2.33;;;2.10;;
8893;SDS011;4483;48.622;9.230;2023-04-15T10:32:16;4.35;;;2.30;;
8893;SDS011;4483;48.622;9.230;2023-04-15T10:34:45;4.68;;;2.20;;
8893;SDS011;4483;48.622;9.230;2023-04-15T10:37:19;2.33;;;1.90;;
8893;SDS011;4483;48.622;9.230;2023-04-15T10:39:46;2.38;;;1.85;;
8893;SDS011;4483;48.622;9.230;2023-04-15T10:42:14;3.90;;;1.55;;
8893;SDS011;4483;48.622;9.230;2023-04-15T10:44:43;1.58;;;1.38;;
8893;SDS011;4483;48.622;9.230;2023-04-15T10:47:12;3.10;;;1.77;;
8893;SDS011;4483;48.622;9.230;2023-04-15T10:49:43;2.35;;;1.63;;
8893;SDS011;4483;48.622;9.230;2023-04-15T10:52:15;2.38;;;2.08;;
8893;SDS011;4483;48.622;9.230;2023-04-15T10:54:43;2.42;;;1.95;;
8893;SDS011;4483;48.622;9.230;2023-04-15T10:57:14;2.95;;;1.67;;
8893;SDS011;4483;48.622;9.230;2023-04-15T11:02:37;5.38;;;1.90;;
8893;SDS011;4483;48.622;9.230;2023-04-15T11:05:09;2.58;;;1.70;;
8893;SDS011;4483;48.622;9.230;2023-04-15T11:07:37;1.73;;;1.63;;
8893;SDS011;4483;48.622;9.230;2023-04-15T11:13:19;3.20;;;1.55;;
8893;SDS011;4483;48.622;9.230;2023-04-15T11:15:56;4.55;;;1.75;;
8893;SDS011;4483;48.622;9.230;2023-04-15T11:18:28;3.58;;;2.00;;
8893;SDS011;4483;48.622;9.230;2023-04-15T11:21:01;2.88;;;1.70;;
8893;SDS011;4483;48.622;9.230;2023-04-15T11:23:30;1.85;;;1.60;;
8893;SDS011;4483;48.622;9.230;2023-04-15T11:25:59;2.47;;;1.60;;
8893;SDS011;4483;48.622;9.230;2023-04-15T11:28:28;2.05;;;1.35;;
8893;SDS011;4483;48.622;9.230;2023-04-15T11:30:56;6.10;;;1.77;;
8893;SDS011;4483;48.622;9.230;2023-04-15T11:33:23;4.25;;;1.48;;
8893;SDS011;4483;48.622;9.230;2023-04-15T11:35:51;2.35;;;1.50;;
8893;SDS011;4483;48.622;9.230;2023-04-15T11:38:20;2.70;;;2.03;;
8893;SDS011;4483;48.622;9.230;2023-04-15T11:40:47;2.10;;;1.95;;
8893;SDS011;4483;48.622;9.230;2023-04-15T11:43:15;1.90;;;1.80;;
8893;SDS011;4483;48.622;9.230;2023-04-15T11:45:49;3.65;;;1.85;;
8893;SDS011;4483;48.622;9.230;2023-04-15T11:48:18;3.05;;;1.98;;
8893;SDS011;4483;48.622;9.230;2023-04-15T11:50:45;3.60;;;1.80;;
8893;SDS011;4483;48.622;9.230;2023-04-15T11:53:18;2.95;;;2.20;;
8893;SDS011;4483;48.622;9.230;2023-04-15T11:55:46;4.05;;;2.08;;
8893;SDS011;4483;48.622;9.230;2023-04-15T11:58:14;2.17;;;1.80;;
8893;SDS011;4483;48.622;9.230;2023-04-15T12:00:46;3.90;;;2.45;;
8893;SDS011;4483;48.622;9.230;2023-04-15T12:03:17;4.30;;;2.40;;
8893;SDS011;4483;48.622;9.230;2023-04-15T12:06:08;2.00;;;1.85;;
8893;SDS011;4483;48.622;9.230;2023-04-15T12:08:49;6.30;;;2.40;;
8893;SDS011;4483;48.622;9.230;2023-04-15T12:11:30;4.47;;;2.03;;
8893;SDS011;4483;48.622;9.230;2023-04-15T12:14:01;8.80;;;2.05;;
8893;SDS011;4483;48.622;9.230;2023-04-15T12:16:29;2.70;;;1.88;;
8893;SDS011;4483;48.622;9.230;2023-04-15T12:18:57;2.40;;;1.77;;
8893;SDS011;4483;48.622;9.230;2023-04-15T12:21:25;4.25;;;2.47;;
8893;SDS011;4483;48.622;9.230;2023-04-15T12:23:53;3.60;;;1.70;;
8893;SDS011;4483;48.622;9.230;2023-04-15T12:26:24;3.97;;;2.00;;
8893;SDS011;4483;48.622;9.230;2023-04-15T12:28:54;3.50;;;1.95;;
8893;SDS011;4483;48.622;9.230;2023-04-15T12:31:21;5.85;;;2.20;;
8893;SDS011;4483;48.622;9.230;2023-04-15T12:33:49;2.13;;;1.77;;
8893;SDS011;4483;48.622;9.230;2023-04-15T12:36:15;2.67;;;2.00;;
8893;SDS011;4483;48.622;9.230;2023-04-15T12:38:42;2.72;;;2.00;;
8893;SDS011;4483;48.622;9.230;2023-04-15T12:41:09;3.22;;;2.55;;
8893;SDS011;4483;48.622;9.230;2023-04-15T12:43:35;5.15;;;2.90;;
8893;SDS011;4483;48.622;9.230;2023-04-15T12:46:03;2.33;;;1.80;;
8893;SDS011;4483;48.622;9.230;2023-04-15T12:48:31;4.00;;;2.08;;
8893;SDS011;4483;48.622;9.230;2023-04-15T12:50:58;4.30;;;2.22;;
8893;SDS011;4483;48.622;9.230;2023-04-15T12:53:25;3.92;;;2.42;;
8893;SDS011;4483;48.622;9.230;2023-04-15T12:55:51;3.10;;;1.98;;
8893;SDS011;4483;48.622;9.230;2023-04-15T12:58:18;3.30;;;2.20;;
8893;SDS011;4483;48.622;9.230;2023-04-15T13:00:44;3.35;;;2.05;;
8893;SDS011;4483;48.622;9.230;2023-04-15T13:03:12;4.00;;;2.45;;
8893;SDS011;4483;48.622;9.230;2023-04-15T13:05:40;3.47;;;2.60;;
8893;SDS011;4483;48.622;9.230;2023-04-15T13:08:07;2.85;;;2.20;;
8893;SDS011;4483;48.622;9.230;2023-04-15T13:10:34;3.15;;;2.03;;
8893;SDS011;4483;48.622;9.230;2023-04-15T13:13:01;6.32;;;2.40;;
8893;SDS011;4483;48.622;9.230;2023-04-15T13:15:28;2.30;;;2.10;;
8893;SDS011;4483;48.622;9.230;2023-04-15T13:17:55;2.22;;;2.10;;
8893;SDS011;4483;48.622;9.230;2023-04-15T13:20:23;5.00;;;2.42;;
8893;SDS011;4483;48.622;9.230;2023-04-15T13:22:51;2.50;;;2.28;;
8893;SDS011;4483;48.622;9.230;2023-04-15T13:25:17;6.50;;;2.20;;
8893;SDS011;4483;48.622;9.230;2023-04-15T13:27:44;2.43;;;1.90;;
8893;SDS011;4483;48.622;9.230;2023-04-15T13:30:12;2.50;;;2.30;;
8893;SDS011;4483;48.622;9.230;2023-04-15T13:32:38;3.40;;;2.20;;
8893;SDS011;4483;48.622;9.230;2023-04-15T13:35:05;1.93;;;1.83;;
8893;SDS011;4483;48.622;9.230;2023-04-15T13:37:34;2.33;;;1.90;;
8893;SDS011;4483;48.622;9.230;2023-04-15T13:40:00;1.80;;;1.67;;
8893;SDS011;4483;48.622;9.230;2023-04-15T13:42:28;3.00;;;2.00;;
8893;SDS011;4483;48.622;9.230;2023-04-15T13:44:54;3.10;;;1.90;;
8893;SDS011;4483;48.622;9.230;2023-04-15T13:47:21;3.03;;;1.70;;
8893;SDS011;4483;48.622;9.230;2023-04-15T13:49:47;3.20;;;1.53;;
8893;SDS011;4483;48.622;9.230;2023-04-15T13:52:14;1.97;;;1.87;;
8893;SDS011;4483;48.622;9.230;2023-04-15T13:54:42;2.60;;;1.90;;
8893;SDS011;4483;48.622;9.230;2023-04-15T13:57:09;2.37;;;1.90;;
8893;SDS011;4483;48.622;9.230;2023-04-15T13:59:36;1.67;;;1.57;;
8893;SDS011;4483;48.622;9.230;2023-04-15T14:02:02;1.90;;;1.77;;
8893;SDS011;4483;48.622;9.230;2023-04-15T14:04:29;2.47;;;1.70;;
8893;SDS011;4483;48.622;9.230;2023-04-15T14:06:56;4.50;;;1.67;;
8893;SDS011;4483;48.622;9.230;2023-04-15T14:09:23;2.13;;;1.70;;
8893;SDS011;4483;48.622;9.230;2023-04-15T14:11:51;2.50;;;1.80;;
8893;SDS011;4483;48.622;9.230;2023-04-15T14:14:18;1.60;;;1.50;;
8893;SDS011;4483;48.622;9.230;2023-04-15T14:16:44;2.67;;;1.77;;
8893;SDS011;4483;48.622;9.230;2023-04-15T14:19:11;1.77;;;1.30;;
8893;SDS011;4483;48.622;9.230;2023-04-15T14:21:38;6.67;;;1.53;;
8893;SDS011;4483;48.622;9.230;2023-04-15T14:24:05;2.40;;;1.60;;
8893;SDS011;4483;48.622;9.230;2023-04-15T14:26:32;1.50;;;1.40;;
8893;SDS011;4483;48.622;9.230;2023-04-15T14:29:00;2.20;;;1.40;;
8893;SDS011;4483;48.622;9.230;2023-04-15T14:31:26;1.33;;;1.20;;
8893;SDS011;4483;48.622;9.230;2023-04-15T14:33:53;2.50;;;1.67;;
8893;SDS011;4483;48.622;9.230;2023-04-15T14:36:20;3.33;;;1.70;;
8893;SDS011;4483;48.622;9.230;2023-04-15T14:38:47;1.43;;;1.33;;
8893;SDS011;4483;48.622;9.230;2023-04-15T14:41:14;1.53;;;1.20;;
8893;SDS011;4483;48.622;9.230;2023-04-15T14:43:41;1.93;;;1.30;;
8893;SDS011;4483;48.622;9.230;2023-04-15T14:46:09;1.27;;;1.20;;
8893;SDS011;4483;48.622;9.230;2023-04-15T14:48:36;1.37;;;1.30;;
8893;SDS011;4483;48.622;9.230;2023-04-15T14:51:02;1.50;;;1.03;;
8893;SDS011;4483;48.622;9.230;2023-04-15T14:53:29;0.83;;;0.80;;
8893;SDS011;4483;48.622;9.230;2023-04-15T14:55:56;0.80;;;0.80;;
8893;SDS011;4483;48.622;9.230;2023-04-15T14:58:22;1.10;;;1.00;;
8893;SDS011;4483;48.622;9.230;2023-04-15T15:00:49;0.93;;;0.80;;
8893;SDS011;4483;48.622;9.230;2023-04-15T15:03:17;0.93;;;0.90;;
8893;SDS011;4483;48.622;9.230;2023-04-15T15:05:44;0.97;;;0.97;;
8893;SDS011;4483;48.622;9.230;2023-04-15T15:08:11;1.73;;;0.80;;
8893;SDS011;4483;48.622;9.230;2023-04-15T15:10:39;2.20;;;1.30;;
8893;SDS011;4483;48.622;9.230;2023-04-15T15:13:06;1.10;;;1.00;;
8893;SDS011;4483;48.622;9.230;2023-04-15T15:15:34;2.30;;;1.10;;
8893;SDS011;4483;48.622;9.230;2023-04-15T15:18:02;1.37;;;1.23;;
8893;SDS011;4483;48.622;9.230;2023-04-15T15:20:31;0.97;;;0.97;;
8893;SDS011;4483;48.622;9.230;2023-04-15T15:22:58;2.93;;;1.40;;